createdAt,value
2019-03-21T00:00:45.133Z,1.32
2019-03-21T00:01:44.764Z,1.27
2019-03-21T00:02:44.768Z,1.32
2019-03-21T00:03:44.746Z,1.37
2019-03-21T00:04:44.807Z,1.44
2019-03-21T00:05:44.729Z,1.32
2019-03-21T00:06:44.771Z,1.30
2019-03-21T00:07:44.699Z,1.29
2019-03-21T00:08:44.691Z,1.30
2019-03-21T00:09:44.678Z,1.33
2019-03-21T00:10:44.710Z,1.30
2019-03-21T00:11:44.668Z,1.40
2019-03-21T00:12:44.645Z,1.37
2019-03-21T00:13:44.671Z,1.34
2019-03-21T00:14:44.628Z,1.27
2019-03-21T00:15:44.639Z,1.41
2019-03-21T00:16:44.631Z,1.45
2019-03-21T00:17:44.593Z,1.42
2019-03-21T00:18:44.581Z,1.41
2019-03-21T00:19:44.572Z,1.41
2019-03-21T00:20:44.561Z,1.40
2019-03-21T00:21:54.697Z,1.36
2019-03-21T00:22:44.540Z,1.44
2019-03-21T00:23:44.529Z,1.37
2019-03-21T00:24:44.517Z,1.51
2019-03-21T00:25:44.507Z,1.52
2019-03-21T00:26:44.502Z,1.48
2019-03-21T00:27:44.533Z,1.51
2019-03-21T00:28:44.476Z,1.48
2019-03-21T00:29:44.464Z,1.51
2019-03-21T00:30:44.457Z,1.48
2019-03-21T00:31:44.457Z,1.52
2019-03-21T00:32:44.433Z,1.47
2019-03-21T00:33:44.461Z,1.48
2019-03-21T00:34:44.411Z,1.58
2019-03-21T00:35:44.402Z,1.47
2019-03-21T00:36:44.391Z,1.44
2019-03-21T00:37:44.378Z,1.47
2019-03-21T00:38:44.370Z,1.50
2019-03-21T00:39:44.373Z,1.51
2019-03-21T00:40:44.363Z,1.51
2019-03-21T00:41:44.366Z,1.50
2019-03-21T00:42:44.328Z,1.47
2019-03-21T00:43:44.316Z,1.44
2019-03-21T00:44:44.345Z,1.50
2019-03-21T00:45:44.296Z,1.48
2019-03-21T00:46:44.285Z,1.48
2019-03-21T00:47:44.274Z,1.52
2019-03-21T00:48:44.266Z,1.47
2019-03-21T00:49:44.251Z,1.47
2019-03-21T00:50:44.250Z,1.54
2019-03-21T00:51:44.236Z,1.52
2019-03-21T00:52:56.101Z,1.58
2019-03-21T00:53:44.208Z,1.55
2019-03-21T00:54:44.199Z,1.58
2019-03-21T00:55:44.207Z,1.51
2019-03-21T00:56:44.177Z,1.50
2019-03-21T00:57:44.171Z,1.58
2019-03-21T00:58:44.156Z,1.52
2019-03-21T00:59:44.142Z,1.50
2019-03-21T01:00:44.139Z,1.54
2019-03-21T01:01:44.134Z,1.50
2019-03-21T01:02:44.110Z,1.54
2019-03-21T01:03:44.106Z,1.51
2019-03-21T01:04:44.094Z,1.54
2019-03-21T01:05:44.080Z,1.51
2019-03-21T01:06:44.112Z,1.51
2019-03-21T01:07:44.062Z,1.58
2019-03-21T01:08:44.049Z,1.52
2019-03-21T01:09:44.039Z,1.50
2019-03-21T01:10:44.033Z,1.48
2019-03-21T01:11:44.018Z,1.50
2019-03-21T01:12:44.014Z,1.48
2019-03-21T01:13:43.997Z,1.45
2019-03-21T01:14:43.983Z,1.47
2019-03-21T01:15:43.974Z,1.36
2019-03-21T01:16:43.969Z,1.37
2019-03-21T01:17:43.992Z,1.42
2019-03-21T01:18:43.943Z,1.44
2019-03-21T01:19:43.932Z,1.45
2019-03-21T01:20:43.922Z,1.47
2019-03-21T01:21:43.910Z,1.51
2019-03-21T01:22:43.902Z,1.50
2019-03-21T01:23:54.691Z,1.47
2019-03-21T01:24:43.880Z,1.41
2019-03-21T01:25:43.867Z,1.48
2019-03-21T01:26:43.856Z,1.42
2019-03-21T01:27:43.847Z,1.34
2019-03-21T01:28:43.877Z,1.37
2019-03-21T01:29:43.827Z,1.42
2019-03-21T01:30:43.814Z,1.34
2019-03-21T01:31:43.803Z,1.44
2019-03-21T01:32:43.795Z,1.34
2019-03-21T01:33:43.788Z,1.45
2019-03-21T01:34:43.780Z,1.41
2019-03-21T01:35:43.759Z,1.36
2019-03-21T01:36:43.748Z,1.42
2019-03-21T01:37:43.738Z,1.40
2019-03-21T01:38:43.740Z,1.33
2019-03-21T01:39:43.729Z,1.48
2019-03-21T01:40:43.782Z,1.42
2019-03-21T01:41:43.699Z,1.41
2019-03-21T01:42:43.689Z,1.42
2019-03-21T01:43:43.680Z,1.40
2019-03-21T01:44:43.672Z,1.34
2019-03-21T01:45:43.664Z,1.41
2019-03-21T01:46:43.646Z,1.42
2019-03-21T01:47:43.645Z,1.32
2019-03-21T01:48:43.623Z,1.44
2019-03-21T01:49:43.610Z,1.33
2019-03-21T01:50:43.600Z,1.44
2019-03-21T01:51:43.598Z,1.42
2019-03-21T01:52:43.579Z,1.36
2019-03-21T01:53:43.577Z,1.41
2019-03-21T01:54:53.767Z,1.36
2019-03-21T01:55:43.546Z,1.41
2019-03-21T01:56:43.555Z,1.44
2019-03-21T01:57:43.526Z,1.42
2019-03-21T01:58:43.514Z,1.41
2019-03-21T01:59:43.503Z,1.37
2019-03-21T02:00:43.499Z,1.33
2019-03-21T02:01:43.485Z,1.45
2019-03-21T02:02:43.486Z,1.42
2019-03-21T02:03:43.472Z,1.42
2019-03-21T02:04:43.451Z,1.41
2019-03-21T02:05:43.438Z,1.37
2019-03-21T02:06:43.432Z,1.42
2019-03-21T02:07:43.430Z,1.44
2019-03-21T02:08:43.425Z,1.40
2019-03-21T02:09:43.398Z,1.37
2019-03-21T02:10:43.389Z,1.42
2019-03-21T02:11:43.375Z,1.40
2019-03-21T02:12:43.374Z,1.34
2019-03-21T02:13:43.396Z,1.33
2019-03-21T02:14:51.789Z,1.41
2019-03-21T02:15:44.334Z,1.36
2019-03-21T02:16:43.322Z,1.37
2019-03-21T02:17:43.312Z,1.41
2019-03-21T02:18:43.299Z,1.42
2019-03-21T02:19:43.331Z,1.44
2019-03-21T02:20:43.279Z,1.40
2019-03-21T02:21:43.270Z,1.40
2019-03-21T02:22:43.259Z,1.45
2019-03-21T02:23:43.247Z,1.44
2019-03-21T02:24:43.235Z,1.34
2019-03-21T02:25:53.254Z,1.30
2019-03-21T02:26:43.217Z,1.40
2019-03-21T02:27:43.204Z,1.30
2019-03-21T02:28:43.193Z,1.27
2019-03-21T02:29:43.180Z,1.30
2019-03-21T02:30:43.181Z,1.30
2019-03-21T02:31:43.187Z,1.32
2019-03-21T02:32:43.152Z,1.36
2019-03-21T02:33:43.138Z,1.26
2019-03-21T02:34:43.124Z,1.32
2019-03-21T02:35:43.117Z,1.30
2019-03-21T02:36:43.110Z,1.30
2019-03-21T02:37:43.139Z,1.32
2019-03-21T02:38:43.081Z,1.36
2019-03-21T02:39:43.074Z,1.34
2019-03-21T02:40:43.058Z,1.32
2019-03-21T02:41:43.048Z,1.33
2019-03-21T02:42:43.039Z,1.32
2019-03-21T02:43:43.043Z,1.32
2019-03-21T02:44:43.063Z,1.27
2019-03-21T02:45:43.007Z,1.32
2019-03-21T02:46:42.992Z,1.34
2019-03-21T02:47:43.036Z,1.34
2019-03-21T02:48:42.979Z,1.34
2019-03-21T02:49:42.968Z,1.33
2019-03-21T02:50:42.958Z,1.30
2019-03-21T02:51:42.949Z,1.23
2019-03-21T02:52:42.931Z,1.24
2019-03-21T02:53:42.999Z,1.24
2019-03-21T02:54:42.917Z,1.27
2019-03-21T02:55:42.905Z,1.27
2019-03-21T02:56:52.902Z,1.22
2019-03-21T02:57:42.882Z,1.20
2019-03-21T02:58:42.872Z,1.16
2019-03-21T02:59:42.862Z,1.26
2019-03-21T03:00:42.846Z,1.26
2019-03-21T03:01:42.840Z,1.24
2019-03-21T03:02:42.832Z,1.18
2019-03-21T03:03:42.824Z,1.20
2019-03-21T03:04:42.837Z,1.11
2019-03-21T03:05:42.797Z,1.15
2019-03-21T03:06:42.780Z,1.22
2019-03-21T03:07:42.772Z,1.08
2019-03-21T03:08:42.766Z,1.02
2019-03-21T03:09:42.762Z,0.94
2019-03-21T03:10:42.783Z,0.97
2019-03-21T03:11:42.730Z,0.94
2019-03-21T03:12:42.720Z,0.94
2019-03-21T03:13:42.709Z,0.96
2019-03-21T03:14:42.703Z,1.02
2019-03-21T03:15:42.687Z,1.02
2019-03-21T03:16:42.715Z,0.94
2019-03-21T03:17:42.664Z,0.94
2019-03-21T03:18:42.654Z,0.90
2019-03-21T03:19:42.640Z,0.83
2019-03-21T03:20:42.635Z,0.84
2019-03-21T03:21:42.630Z,0.80
2019-03-21T03:22:42.619Z,0.72
2019-03-21T03:23:42.608Z,0.73
2019-03-21T03:24:42.590Z,0.69
2019-03-21T03:25:42.578Z,0.70
2019-03-21T03:26:42.564Z,0.73
2019-03-21T03:27:53.288Z,0.55
2019-03-21T03:28:42.566Z,0.62
2019-03-21T03:29:42.551Z,0.60
2019-03-21T03:30:42.525Z,0.57
2019-03-21T03:31:42.517Z,0.47
2019-03-21T03:32:42.516Z,0.41
2019-03-21T03:33:42.535Z,0.47
2019-03-21T03:34:42.484Z,0.42
2019-03-21T03:35:42.478Z,0.44
2019-03-21T03:36:42.468Z,0.39
2019-03-21T03:37:42.465Z,0.41
2019-03-21T03:38:42.436Z,0.39
2019-03-21T03:39:42.441Z,0.38
2019-03-21T03:40:42.424Z,0.41
2019-03-21T03:41:42.405Z,0.35
2019-03-21T03:42:42.403Z,0.35
2019-03-21T03:43:42.399Z,0.29
2019-03-21T03:44:42.422Z,0.28
2019-03-21T03:45:42.369Z,0.29
2019-03-21T03:46:42.351Z,0.28
2019-03-21T03:47:42.353Z,0.20
2019-03-21T03:48:42.347Z,0.20
2019-03-21T03:49:42.322Z,0.20
2019-03-21T03:50:42.320Z,0.17
2019-03-21T03:51:42.302Z,0.15
2019-03-21T03:52:42.289Z,0.18
2019-03-21T03:53:42.806Z,0.17
2019-03-21T03:54:42.270Z,0.20
2019-03-21T03:55:42.265Z,0.15
2019-03-21T03:56:42.269Z,0.21
2019-03-21T03:57:42.241Z,0.07
2019-03-21T03:58:52.215Z,0.07
2019-03-21T03:59:42.743Z,0.03
2019-03-21T04:00:42.207Z,-0.01
2019-03-21T04:01:42.209Z,-0.07
2019-03-21T04:02:42.185Z,-0.08
2019-03-21T04:03:42.170Z,-0.04
2019-03-21T04:04:42.158Z,0.08
2019-03-21T04:05:42.158Z,-0.04
2019-03-21T04:06:42.146Z,-0.05
2019-03-21T04:07:42.142Z,-0.04
2019-03-21T04:08:42.125Z,-0.05
2019-03-21T04:09:42.115Z,-0.07
2019-03-21T04:10:42.102Z,-0.03
2019-03-21T04:11:42.096Z,-0.03
2019-03-21T04:12:42.083Z,-0.01
2019-03-21T04:13:42.066Z,0.00
2019-03-21T04:14:42.060Z,0.00
2019-03-21T04:15:52.525Z,-0.05
2019-03-21T04:16:43.037Z,-0.05
2019-03-21T04:17:42.033Z,0.00
2019-03-21T04:18:42.011Z,0.04
2019-03-21T04:19:42.006Z,0.08
2019-03-21T04:20:41.990Z,0.00
2019-03-21T04:21:41.980Z,0.04
2019-03-21T04:22:42.003Z,-0.07
2019-03-21T04:23:41.971Z,-0.07
2019-03-21T04:24:41.947Z,-0.03
2019-03-21T04:25:41.934Z,-0.07
2019-03-21T04:26:41.948Z,-0.08
2019-03-21T04:27:41.917Z,-0.10
2019-03-21T04:28:41.946Z,0.03
2019-03-21T04:29:52.175Z,-0.03
2019-03-21T04:30:41.889Z,0.00
2019-03-21T04:31:41.867Z,0.10
2019-03-21T04:32:41.866Z,-0.03
2019-03-21T04:33:41.858Z,-0.04
2019-03-21T04:34:41.884Z,-0.05
2019-03-21T04:35:41.825Z,-0.03
2019-03-21T04:36:41.826Z,-0.01
2019-03-21T04:37:41.812Z,-0.05
2019-03-21T04:38:41.800Z,-0.01
2019-03-21T04:39:41.785Z,-0.04
2019-03-21T04:40:41.790Z,0.11
2019-03-21T04:41:41.783Z,-0.05
2019-03-21T04:42:41.754Z,-0.15
2019-03-21T04:43:41.744Z,-0.05
2019-03-21T04:44:41.733Z,-0.04
2019-03-21T04:45:41.721Z,-0.14
2019-03-21T04:46:41.721Z,-0.11
2019-03-21T04:47:41.748Z,0.02
2019-03-21T04:48:41.685Z,0.02
2019-03-21T04:49:41.677Z,-0.05
2019-03-21T04:50:41.674Z,-0.07
2019-03-21T04:51:41.657Z,-0.10
2019-03-21T04:52:41.650Z,-0.08
2019-03-21T04:53:41.642Z,-0.05
2019-03-21T04:54:41.628Z,-0.03
2019-03-21T04:55:41.616Z,-0.05
2019-03-21T04:56:41.604Z,0.08
2019-03-21T04:57:41.594Z,0.07
2019-03-21T04:58:41.627Z,0.00
2019-03-21T04:59:41.576Z,0.08
2019-03-21T05:00:52.458Z,0.00
2019-03-21T05:01:41.545Z,0.04
2019-03-21T05:02:41.537Z,-0.05
2019-03-21T05:03:41.527Z,-0.01
2019-03-21T05:04:41.533Z,0.08
2019-03-21T05:05:41.553Z,0.18
2019-03-21T05:06:41.497Z,0.24
2019-03-21T05:07:41.487Z,0.17
2019-03-21T05:08:41.486Z,0.15
2019-03-21T05:09:41.484Z,0.15
2019-03-21T05:10:41.457Z,0.31
2019-03-21T05:11:41.454Z,0.28
2019-03-21T05:12:41.436Z,0.23
2019-03-21T05:13:41.427Z,0.38
2019-03-21T05:14:41.415Z,0.33
2019-03-21T05:15:41.409Z,0.28
2019-03-21T05:16:41.395Z,0.35
2019-03-21T05:17:41.378Z,0.33
2019-03-21T05:18:41.376Z,0.38
2019-03-21T05:19:41.361Z,0.32
2019-03-21T05:20:41.388Z,0.36
2019-03-21T05:21:41.336Z,0.32
2019-03-21T05:22:41.322Z,0.42
2019-03-21T05:23:41.312Z,0.32
2019-03-21T05:24:41.306Z,0.31
2019-03-21T05:25:41.304Z,0.32
2019-03-21T05:26:41.295Z,0.44
2019-03-21T05:27:41.274Z,0.51
2019-03-21T05:28:42.260Z,0.46
2019-03-21T05:29:41.257Z,0.51
2019-03-21T05:30:41.238Z,0.53
2019-03-21T05:31:52.305Z,0.69
2019-03-21T05:32:41.220Z,0.57
2019-03-21T05:33:41.208Z,0.57
2019-03-21T05:34:41.200Z,0.55
2019-03-21T05:35:41.182Z,0.53
2019-03-21T05:36:41.172Z,0.51
2019-03-21T05:37:41.197Z,0.62
2019-03-21T05:38:41.151Z,0.73
2019-03-21T05:39:41.141Z,0.72
2019-03-21T05:40:41.135Z,0.70
2019-03-21T05:41:41.125Z,0.69
2019-03-21T05:42:41.174Z,0.73
2019-03-21T05:43:41.140Z,0.72
2019-03-21T05:44:41.093Z,0.69
2019-03-21T05:45:41.081Z,0.68
2019-03-21T05:46:41.072Z,0.69
2019-03-21T05:47:41.062Z,0.73
2019-03-21T05:48:41.048Z,0.79
2019-03-21T05:49:41.072Z,0.87
2019-03-21T05:50:41.031Z,0.83
2019-03-21T05:51:41.021Z,0.90
2019-03-21T05:52:41.006Z,0.98
2019-03-21T05:53:40.994Z,1.00
2019-03-21T05:54:40.991Z,0.96
2019-03-21T05:55:40.978Z,0.94
2019-03-21T05:56:40.970Z,0.96
2019-03-21T05:57:40.954Z,1.09
2019-03-21T05:58:40.941Z,1.08
2019-03-21T05:59:40.929Z,1.04
2019-03-21T06:00:40.927Z,1.05
2019-03-21T06:01:40.907Z,1.09
2019-03-21T06:02:51.039Z,1.09
2019-03-21T06:03:40.884Z,1.16
2019-03-21T06:04:40.877Z,1.15
2019-03-21T06:05:40.880Z,1.11
2019-03-21T06:06:40.867Z,1.22
2019-03-21T06:07:40.849Z,1.23
2019-03-21T06:08:40.833Z,1.20
2019-03-21T06:09:40.831Z,1.37
2019-03-21T06:10:40.808Z,1.27
2019-03-21T06:11:40.864Z,1.33
2019-03-21T06:12:40.794Z,1.32
2019-03-21T06:13:40.779Z,1.48
2019-03-21T06:14:40.766Z,1.44
2019-03-21T06:15:40.755Z,1.42
2019-03-21T06:16:40.749Z,1.41
2019-03-21T06:17:40.751Z,1.55
2019-03-21T06:18:40.724Z,1.48
2019-03-21T06:19:40.722Z,1.55
2019-03-21T06:20:40.709Z,1.47
2019-03-21T06:21:40.734Z,1.54
2019-03-21T06:22:40.686Z,1.48
2019-03-21T06:23:40.675Z,1.48
2019-03-21T06:24:40.659Z,1.63
2019-03-21T06:25:40.652Z,1.51
2019-03-21T06:26:40.644Z,1.59
2019-03-21T06:27:40.673Z,1.69
2019-03-21T06:28:40.619Z,1.76
2019-03-21T06:29:40.611Z,1.73
2019-03-21T06:30:40.596Z,1.72
2019-03-21T06:31:40.595Z,1.72
2019-03-21T06:32:40.578Z,1.88
2019-03-21T06:33:51.335Z,1.80
2019-03-21T06:34:40.608Z,1.88
2019-03-21T06:35:40.544Z,1.98
2019-03-21T06:36:40.544Z,2.05
2019-03-21T06:37:40.559Z,2.06
2019-03-21T06:38:40.550Z,2.03
2019-03-21T06:39:40.512Z,2.03
2019-03-21T06:40:40.494Z,2.07
2019-03-21T06:41:40.479Z,2.12
2019-03-21T06:42:40.480Z,2.10
2019-03-21T06:43:40.467Z,2.24
2019-03-21T06:44:40.490Z,2.10
2019-03-21T06:45:48.001Z,2.12
2019-03-21T06:46:49.294Z,2.12
2019-03-21T06:47:41.440Z,2.09
2019-03-21T06:48:40.408Z,2.12
2019-03-21T06:49:40.403Z,2.09
2019-03-21T06:50:40.388Z,2.25
2019-03-21T06:51:40.373Z,2.36
2019-03-21T06:52:40.367Z,2.45
2019-03-21T06:53:40.352Z,2.49
2019-03-21T06:54:40.342Z,2.56
2019-03-21T06:55:40.375Z,2.56
2019-03-21T06:56:40.322Z,2.57
2019-03-21T06:57:40.331Z,2.48
2019-03-21T06:58:40.301Z,2.52
2019-03-21T06:59:40.289Z,2.60
2019-03-21T07:00:40.274Z,2.79
2019-03-21T07:01:40.339Z,2.72
2019-03-21T07:02:40.260Z,2.77
2019-03-21T07:03:40.254Z,2.66
2019-03-21T07:04:52.111Z,2.63
2019-03-21T07:05:40.221Z,2.72
2019-03-21T07:06:40.204Z,2.67
2019-03-21T07:07:40.208Z,2.72
2019-03-21T07:08:40.218Z,2.95
2019-03-21T07:09:40.181Z,3.13
2019-03-21T07:10:40.167Z,3.32
2019-03-21T07:11:40.190Z,3.86
2019-03-21T07:12:40.146Z,4.36
2019-03-21T07:13:40.132Z,4.73
2019-03-21T07:14:40.121Z,4.94
2019-03-21T07:15:40.115Z,5.03
2019-03-21T07:16:40.098Z,4.69
2019-03-21T07:17:40.239Z,4.99
2019-03-21T07:18:40.078Z,4.99
2019-03-21T07:19:40.067Z,5.90
2019-03-21T07:20:40.075Z,5.82
2019-03-21T07:21:40.050Z,6.21
2019-03-21T07:22:40.036Z,5.97
2019-03-21T07:23:40.887Z,5.46
2019-03-21T07:24:40.017Z,5.58
2019-03-21T07:25:40.038Z,4.92
2019-03-21T07:26:39.997Z,5.64
2019-03-21T07:27:39.976Z,5.13
2019-03-21T07:28:39.964Z,4.48
2019-03-21T07:29:39.966Z,3.83
2019-03-21T07:30:39.942Z,3.75
2019-03-21T07:31:39.934Z,4.84
2019-03-21T07:32:39.925Z,5.83
2019-03-21T07:33:39.908Z,5.12
2019-03-21T07:34:39.942Z,5.10
2019-03-21T07:35:50.019Z,4.97
2019-03-21T07:36:39.887Z,4.23
2019-03-21T07:37:39.865Z,4.24
2019-03-21T07:38:39.860Z,4.24
2019-03-21T07:39:39.848Z,4.20
2019-03-21T07:40:39.931Z,5.15
2019-03-21T07:41:39.821Z,4.26
2019-03-21T07:42:39.818Z,3.98
2019-03-21T07:43:39.811Z,3.79
2019-03-21T07:44:39.796Z,3.54
2019-03-21T07:45:39.891Z,3.47
2019-03-21T07:46:39.774Z,3.55
2019-03-21T07:47:39.766Z,3.40
2019-03-21T07:48:39.743Z,3.57
2019-03-21T07:49:39.738Z,3.29
2019-03-21T07:50:39.730Z,3.60
2019-03-21T07:51:39.716Z,3.65
2019-03-21T07:52:39.726Z,4.85
2019-03-21T07:53:39.695Z,6.17
2019-03-21T07:54:39.676Z,6.36
2019-03-21T07:55:39.673Z,6.12
2019-03-21T07:56:39.670Z,6.44
2019-03-21T07:57:39.682Z,6.70
2019-03-21T07:58:39.635Z,7.42
2019-03-21T07:59:39.631Z,7.24
2019-03-21T08:00:39.614Z,7.10
2019-03-21T08:01:39.612Z,7.35
2019-03-21T08:02:39.595Z,8.43
2019-03-21T08:03:39.616Z,8.23
2019-03-21T08:04:39.574Z,7.68
2019-03-21T08:05:40.836Z,7.97
2019-03-21T08:06:51.104Z,7.21
2019-03-21T08:07:39.541Z,7.95
2019-03-21T08:08:39.528Z,8.01
2019-03-21T08:09:39.617Z,7.15
2019-03-21T08:10:39.506Z,7.71
2019-03-21T08:11:39.500Z,6.31
2019-03-21T08:12:39.487Z,6.73
2019-03-21T08:13:39.475Z,7.67
2019-03-21T08:14:39.501Z,7.50
2019-03-21T08:15:39.449Z,7.93
2019-03-21T08:16:39.441Z,8.38
2019-03-21T08:17:39.451Z,8.28
2019-03-21T08:18:39.433Z,8.76
2019-03-21T08:19:39.429Z,8.83
2019-03-21T08:20:39.435Z,8.50
2019-03-21T08:21:39.384Z,8.56
2019-03-21T08:22:39.381Z,8.95
2019-03-21T08:23:39.384Z,9.36
2019-03-21T08:24:39.351Z,8.81
2019-03-21T08:25:39.350Z,9.14
2019-03-21T08:26:39.337Z,9.13
2019-03-21T08:27:39.326Z,8.89
2019-03-21T08:28:39.305Z,8.44
2019-03-21T08:29:39.297Z,8.29
2019-03-21T08:30:39.291Z,8.37
2019-03-21T08:31:39.282Z,8.02
2019-03-21T08:32:39.261Z,8.33
2019-03-21T08:33:39.261Z,8.71
2019-03-21T08:34:39.263Z,9.11
2019-03-21T08:35:39.229Z,9.14
2019-03-21T08:36:39.245Z,9.18
2019-03-21T08:37:49.213Z,8.73
2019-03-21T08:38:39.199Z,9.18
2019-03-21T08:39:39.185Z,9.56
2019-03-21T08:40:39.177Z,10.01
2019-03-21T08:41:39.176Z,9.48
2019-03-21T08:42:39.193Z,9.90
2019-03-21T08:43:39.163Z,9.90
2019-03-21T08:44:39.132Z,9.99
2019-03-21T08:45:39.128Z,9.02
2019-03-21T08:46:39.168Z,9.90
2019-03-21T08:47:39.101Z,10.66
2019-03-21T08:48:39.101Z,9.76
2019-03-21T08:49:39.084Z,8.81
2019-03-21T08:50:39.068Z,8.68
2019-03-21T08:51:39.066Z,8.81
2019-03-21T08:52:39.099Z,8.80
2019-03-21T08:53:39.037Z,8.58
2019-03-21T08:54:39.030Z,9.15
2019-03-21T08:55:39.013Z,9.13
2019-03-21T08:56:39.003Z,8.45
2019-03-21T08:57:39.002Z,8.08
2019-03-21T08:58:38.993Z,8.00
2019-03-21T08:59:38.967Z,8.12
2019-03-21T09:00:38.960Z,9.02
2019-03-21T09:01:38.958Z,9.04
2019-03-21T09:02:38.944Z,9.26
2019-03-21T09:03:38.967Z,9.53
2019-03-21T09:04:38.926Z,9.10
2019-03-21T09:05:38.909Z,9.54
2019-03-21T09:06:38.895Z,10.33
2019-03-21T09:07:38.891Z,10.74
2019-03-21T09:08:48.964Z,10.64
2019-03-21T09:09:38.866Z,11.11
2019-03-21T09:10:38.869Z,10.30
2019-03-21T09:11:38.843Z,9.87
2019-03-21T09:12:38.836Z,9.56
2019-03-21T09:13:38.818Z,10.11
2019-03-21T09:14:38.822Z,10.25
2019-03-21T09:15:38.811Z,10.42
2019-03-21T09:16:38.802Z,10.26
2019-03-21T09:17:38.781Z,10.22
2019-03-21T09:18:38.785Z,10.29
2019-03-21T09:19:38.792Z,10.92
2019-03-21T09:20:38.747Z,11.07
2019-03-21T09:21:38.738Z,11.29
2019-03-21T09:22:38.733Z,11.19
2019-03-21T09:23:38.717Z,11.32
2019-03-21T09:24:38.709Z,11.36
2019-03-21T09:25:38.698Z,11.25
2019-03-21T09:26:38.676Z,11.39
2019-03-21T09:27:38.698Z,11.83
2019-03-21T09:28:38.655Z,12.53
2019-03-21T09:29:38.653Z,12.09
2019-03-21T09:30:38.648Z,11.91
2019-03-21T09:31:38.640Z,12.13
2019-03-21T09:32:38.621Z,12.71
2019-03-21T09:33:38.614Z,12.35
2019-03-21T09:34:38.598Z,12.31
2019-03-21T09:35:38.582Z,12.32
2019-03-21T09:36:38.712Z,12.64
2019-03-21T09:37:38.563Z,12.46
2019-03-21T09:38:38.564Z,12.35
2019-03-21T09:39:50.100Z,11.78
2019-03-21T09:40:38.535Z,11.99
2019-03-21T09:41:38.521Z,12.02
2019-03-21T09:42:38.975Z,12.13
2019-03-21T09:43:38.563Z,12.78
2019-03-21T09:44:38.490Z,13.42
2019-03-21T09:45:38.488Z,14.10
2019-03-21T09:46:49.953Z,14.35
2019-03-21T09:47:39.461Z,14.06
2019-03-21T09:48:38.449Z,14.03
2019-03-21T09:49:38.447Z,13.75
2019-03-21T09:50:38.433Z,14.00
2019-03-21T09:51:38.422Z,14.47
2019-03-21T09:52:38.411Z,15.39
2019-03-21T09:53:38.407Z,14.45
2019-03-21T09:54:38.393Z,13.77
2019-03-21T09:55:38.385Z,13.78
2019-03-21T09:56:38.365Z,13.67
2019-03-21T09:57:38.418Z,13.51
2019-03-21T09:58:38.344Z,13.57
2019-03-21T09:59:38.339Z,13.63
2019-03-21T10:00:38.329Z,14.29
2019-03-21T10:01:38.318Z,13.66
2019-03-21T10:02:38.305Z,12.77
2019-03-21T10:03:38.328Z,13.17
2019-03-21T10:04:38.286Z,13.87
2019-03-21T10:05:38.282Z,13.14
2019-03-21T10:06:38.269Z,12.71
2019-03-21T10:07:38.255Z,13.10
2019-03-21T10:08:38.251Z,13.79
2019-03-21T10:09:38.274Z,14.42
2019-03-21T10:10:48.251Z,14.43
2019-03-21T10:11:38.213Z,14.47
2019-03-21T10:12:38.207Z,14.29
2019-03-21T10:13:38.200Z,13.87
2019-03-21T10:14:38.183Z,13.25
2019-03-21T10:15:38.218Z,12.97
2019-03-21T10:16:38.161Z,13.49
2019-03-21T10:17:38.155Z,14.40
2019-03-21T10:18:38.139Z,14.22
2019-03-21T10:19:38.130Z,14.45
2019-03-21T10:20:38.119Z,13.82
2019-03-21T10:21:43.326Z,15.06
2019-03-21T10:22:39.100Z,15.90
2019-03-21T10:23:38.095Z,15.86
2019-03-21T10:24:38.087Z,15.67
2019-03-21T10:25:38.090Z,15.90
2019-03-21T10:26:38.131Z,17.07
2019-03-21T10:27:38.186Z,17.26
2019-03-21T10:28:38.055Z,16.50
2019-03-21T10:29:38.036Z,15.28
2019-03-21T10:30:38.030Z,15.59
2019-03-21T10:31:38.017Z,16.04
2019-03-21T10:32:38.016Z,16.50
2019-03-21T10:33:37.988Z,16.21
2019-03-21T10:34:37.983Z,15.21
2019-03-21T10:35:37.984Z,15.19
2019-03-21T10:36:37.963Z,15.76
2019-03-21T10:37:37.985Z,15.50
2019-03-21T10:38:37.953Z,15.03
2019-03-21T10:39:37.936Z,14.62
2019-03-21T10:40:37.931Z,15.50
2019-03-21T10:41:48.030Z,15.71
2019-03-21T10:42:37.904Z,16.24
2019-03-21T10:43:37.907Z,16.70
2019-03-21T10:44:37.885Z,15.90
2019-03-21T10:45:37.907Z,16.49
2019-03-21T10:46:37.867Z,16.21
2019-03-21T10:47:37.859Z,16.24
2019-03-21T10:48:37.846Z,15.71
2019-03-21T10:49:37.857Z,15.21
2019-03-21T10:50:37.836Z,14.47
2019-03-21T10:51:37.896Z,14.54
2019-03-21T10:52:37.871Z,14.60
2019-03-21T10:53:37.804Z,15.28
2019-03-21T10:54:37.790Z,15.84
2019-03-21T10:55:37.833Z,14.92
2019-03-21T10:56:37.768Z,12.72
2019-03-21T10:57:37.779Z,13.19
2019-03-21T10:58:38.515Z,14.25
2019-03-21T10:59:37.740Z,14.52
2019-03-21T11:00:37.862Z,14.92
2019-03-21T11:01:37.719Z,14.51
2019-03-21T11:02:37.731Z,14.50
2019-03-21T11:03:37.825Z,13.78
2019-03-21T11:04:37.756Z,14.33
2019-03-21T11:05:37.685Z,13.42
2019-03-21T11:06:37.734Z,13.33
2019-03-21T11:07:37.681Z,13.66
2019-03-21T11:08:37.660Z,14.06
2019-03-21T11:09:37.645Z,14.77
2019-03-21T11:10:37.644Z,14.39
2019-03-21T11:11:37.636Z,14.15
2019-03-21T11:12:49.743Z,13.78
2019-03-21T11:13:37.608Z,12.75
2019-03-21T11:14:37.600Z,12.86
2019-03-21T11:15:37.584Z,12.72
2019-03-21T11:16:37.581Z,13.46
2019-03-21T11:17:37.567Z,14.60
2019-03-21T11:18:37.567Z,14.27
2019-03-21T11:19:37.549Z,13.52
2019-03-21T11:20:37.534Z,13.64
2019-03-21T11:21:37.524Z,13.32
2019-03-21T11:22:37.562Z,13.44
2019-03-21T11:23:37.525Z,13.36
2019-03-21T11:24:37.507Z,14.02
2019-03-21T11:25:37.500Z,13.78
2019-03-21T11:26:37.478Z,14.00
2019-03-21T11:27:37.473Z,14.33
2019-03-21T11:28:37.471Z,14.37
2019-03-21T11:29:37.495Z,14.65
2019-03-21T11:30:37.432Z,14.60
2019-03-21T11:31:37.427Z,14.98
2019-03-21T11:32:37.413Z,15.35
2019-03-21T11:33:37.404Z,14.95
2019-03-21T11:34:37.399Z,15.09
2019-03-21T11:35:37.405Z,15.32
2019-03-21T11:36:38.508Z,15.34
2019-03-21T11:37:37.381Z,15.34
2019-03-21T11:38:37.352Z,15.62
2019-03-21T11:39:37.349Z,15.83
2019-03-21T11:40:37.350Z,14.72
2019-03-21T11:41:37.341Z,14.21
2019-03-21T11:42:37.318Z,15.57
2019-03-21T11:43:48.768Z,16.71
2019-03-21T11:44:37.305Z,17.12
2019-03-21T11:45:37.299Z,16.85
2019-03-21T11:46:37.285Z,16.09
2019-03-21T11:47:41.745Z,16.00
2019-03-21T11:48:38.261Z,16.24
2019-03-21T11:49:37.252Z,16.02
2019-03-21T11:50:37.243Z,16.78
2019-03-21T11:51:37.231Z,16.71
2019-03-21T11:52:37.227Z,15.94
2019-03-21T11:53:37.206Z,14.84
2019-03-21T11:54:37.199Z,14.64
2019-03-21T11:55:37.221Z,15.25
2019-03-21T11:56:37.186Z,14.84
2019-03-21T11:57:37.172Z,14.98
2019-03-21T11:58:37.159Z,14.24
2019-03-21T11:59:50.738Z,14.14
2019-03-21T12:00:44.468Z,14.94
2019-03-21T12:01:38.138Z,15.80
2019-03-21T12:02:37.123Z,15.60
2019-03-21T12:03:37.117Z,13.88
2019-03-21T12:04:37.101Z,14.06
2019-03-21T12:05:37.088Z,14.33
2019-03-21T12:06:37.105Z,14.39
2019-03-21T12:07:37.076Z,14.98
2019-03-21T12:08:37.063Z,14.39
2019-03-21T12:09:37.057Z,14.47
2019-03-21T12:10:37.040Z,15.23
2019-03-21T12:11:37.068Z,15.54
2019-03-21T12:12:37.022Z,15.16
2019-03-21T12:13:37.007Z,14.84
2019-03-21T12:14:47.505Z,14.46
2019-03-21T12:15:36.991Z,14.84
2019-03-21T12:16:36.981Z,15.03
2019-03-21T12:17:36.977Z,15.36
2019-03-21T12:18:36.956Z,14.69
2019-03-21T12:19:36.949Z,14.92
2019-03-21T12:20:36.938Z,14.55
2019-03-21T12:21:36.932Z,14.78
2019-03-21T12:22:36.957Z,14.46
2019-03-21T12:23:36.903Z,13.82
2019-03-21T12:24:36.894Z,14.80
2019-03-21T12:25:36.890Z,15.75
2019-03-21T12:26:36.877Z,16.88
2019-03-21T12:27:36.873Z,17.22
2019-03-21T12:28:36.904Z,17.66
2019-03-21T12:29:36.849Z,17.37
2019-03-21T12:30:36.836Z,15.96
2019-03-21T12:31:36.833Z,16.12
2019-03-21T12:32:36.819Z,15.84
2019-03-21T12:33:36.812Z,15.75
2019-03-21T12:34:36.835Z,15.34
2019-03-21T12:35:36.788Z,14.92
2019-03-21T12:36:36.777Z,15.76
2019-03-21T12:37:36.769Z,16.76
2019-03-21T12:38:36.759Z,16.56
2019-03-21T12:39:36.745Z,15.62
2019-03-21T12:40:36.750Z,16.17
2019-03-21T12:41:36.729Z,17.36
2019-03-21T12:42:36.726Z,18.45
2019-03-21T12:43:36.722Z,17.51
2019-03-21T12:44:36.700Z,16.25
2019-03-21T12:45:47.161Z,14.46
2019-03-21T12:46:36.674Z,13.78
2019-03-21T12:47:36.662Z,13.19
2019-03-21T12:48:36.658Z,12.62
2019-03-21T12:49:36.646Z,12.95
2019-03-21T12:50:36.685Z,12.78
2019-03-21T12:51:36.627Z,12.46
2019-03-21T12:53:37.708Z,12.46
2019-03-21T12:54:36.657Z,12.77
2019-03-21T12:55:36.583Z,13.05
2019-03-21T12:56:36.584Z,12.75
2019-03-21T12:57:36.566Z,13.44
2019-03-21T12:58:36.550Z,14.22
2019-03-21T12:59:36.537Z,14.27
2019-03-21T13:00:36.525Z,14.17
2019-03-21T13:01:36.549Z,14.70
2019-03-21T13:02:36.508Z,14.68
2019-03-21T13:03:36.494Z,13.79
2019-03-21T13:04:36.485Z,14.03
2019-03-21T13:05:36.482Z,14.12
2019-03-21T13:06:36.460Z,14.52
2019-03-21T13:07:13.265Z,12.21
2019-03-21T13:07:36.460Z,14.81
2019-03-21T13:08:36.444Z,14.27